Oak Creek, WI

5:02 PM CST on March 03, 2015 (GMT -0600)
OakCreek,Verdev | Change Station
CLOSE
Current Station
Personal Weather Station
Location: Oak Creek, WI
Elevation: 715 ft
Nearby Weather Stations

Elev 715 ft 42.90 °N, 87.91 °W | Updated 11 minutes ago

Overcast
Overcast
31.6 °F
Feels Like 32 °F
N
3.0
Wind Variable Wind from West
Gusts 13.0 mph

Today
High -- | Low -- °F
--% Chance of Precip.
Yesterday
High -- | Low -- °F
Precip. -- in
6:24 AM 5:43 PM
Waxing Gibbous, 97% visible
Pressure 29.68 in
Visibility 10.0 miles
Clouds Overcast 2300 ft
Windchill 32 °F
Dew Point 27 °F
Humidity 82%
Rainfall 0.00 in
Snow Depth Not available.
UV 0 out of 12
Pollen .50 out of 12
Air Quality Not available.
Flu Activity Not available.
METAR KMKE 032252Z 29013G20KT 10SM OVC023 00/M05 A2966 RMK AO2 SLP050 T00001050

More Conditions Fewer Conditions

Pressure 29.68 in
Visibility 10.0 miles
Clouds Overcast 2300 ft
Windchill 32 °F
Dew Point 27 °F
Humidity 82%
Rainfall 0.00 in
Snow Depth Not available.
UV 0 out of 12
Pollen .50 out of 12
Air Quality Not available.
Flu Activity Not available.
METAR KMKE 032252Z 29013G20KT 10SM OVC023 00/M05 A2966 RMK AO2 SLP050 T00001050

More Conditions Fewer Conditions

10-Day Weather Forecast

Almanac

Astronomy

Mar. 03, 2015 Rise Set
Actual Time
Civil Twilight
Nautical Twilight
Astronomical Twilight
Moon
Length of Visible Light
Length of Day
Tomorrow will be .
, % of the Moon is Illuminated

Today's Extremes

State Highs State Lows

Community

WunderPhotos

Upload Photos

1,802,299 photos uploaded!

WunderBlogs® & News

Nearby

Air Quality

  Air Quality AQ Index Pollutant
Not available.

Snow Depth

Station Depth Elevation

Earthquake Activity

City Distance Mag. Time & Date
Minimum magnitude displayed is 2.5.

Coastal Water Temperatures

Place Temperature

Nearby Weather Stations